sensor_id;sensor_type;location;lat;lon;timestamp;P1;durP1;ratioP1;P2;durP2;ratioP2
77542;SDS011;66669;52.100;5.104;2023-03-01T00:01:11;2.85;;;2.00;;
77542;SDS011;66669;52.100;5.104;2023-03-01T00:03:38;3.00;;;2.10;;
77542;SDS011;66669;52.100;5.104;2023-03-01T00:06:04;3.33;;;2.00;;
77542;SDS011;66669;52.100;5.104;2023-03-01T00:08:31;2.10;;;1.85;;
77542;SDS011;66669;52.100;5.104;2023-03-01T00:11:05;2.85;;;2.20;;
77542;SDS011;66669;52.100;5.104;2023-03-01T00:13:33;2.80;;;2.15;;
77542;SDS011;66669;52.100;5.104;2023-03-01T00:16:01;3.10;;;1.90;;
77542;SDS011;66669;52.100;5.104;2023-03-01T00:18:31;2.65;;;1.95;;
77542;SDS011;66669;52.100;5.104;2023-03-01T00:20:56;3.55;;;2.38;;
77542;SDS011;66669;52.100;5.104;2023-03-01T00:23:22;2.78;;;2.10;;
77542;SDS011;66669;52.100;5.104;2023-03-01T00:25:48;2.42;;;2.00;;
77542;SDS011;66669;52.100;5.104;2023-03-01T00:28:14;2.67;;;2.10;;
77542;SDS011;66669;52.100;5.104;2023-03-01T00:30:40;2.90;;;2.40;;
77542;SDS011;66669;52.100;5.104;2023-03-01T00:33:06;3.08;;;2.33;;
77542;SDS011;66669;52.100;5.104;2023-03-01T00:35:32;2.45;;;2.22;;
77542;SDS011;66669;52.100;5.104;2023-03-01T00:37:58;3.38;;;2.08;;
77542;SDS011;66669;52.100;5.104;2023-03-01T00:40:24;6.20;;;2.50;;
77542;SDS011;66669;52.100;5.104;2023-03-01T00:42:50;3.38;;;2.25;;
77542;SDS011;66669;52.100;5.104;2023-03-01T00:45:16;4.30;;;2.30;;
77542;SDS011;66669;52.100;5.104;2023-03-01T00:47:42;3.25;;;2.20;;
77542;SDS011;66669;52.100;5.104;2023-03-01T00:50:07;3.88;;;2.30;;
77542;SDS011;66669;52.100;5.104;2023-03-01T00:52:34;3.55;;;2.45;;
77542;SDS011;66669;52.100;5.104;2023-03-01T00:54:59;2.80;;;2.47;;
77542;SDS011;66669;52.100;5.104;2023-03-01T00:57:25;2.50;;;2.20;;
77542;SDS011;66669;52.100;5.104;2023-03-01T00:59:51;4.97;;;2.40;;
77542;SDS011;66669;52.100;5.104;2023-03-01T01:02:19;3.05;;;2.00;;
77542;SDS011;66669;52.100;5.104;2023-03-01T01:04:45;3.35;;;2.35;;
77542;SDS011;66669;52.100;5.104;2023-03-01T01:07:11;2.72;;;2.15;;
77542;SDS011;66669;52.100;5.104;2023-03-01T01:09:37;3.33;;;2.08;;
77542;SDS011;66669;52.100;5.104;2023-03-01T01:12:02;2.38;;;2.05;;
77542;SDS011;66669;52.100;5.104;2023-03-01T01:14:28;3.92;;;2.30;;
77542;SDS011;66669;52.100;5.104;2023-03-01T01:16:53;4.13;;;2.05;;
77542;SDS011;66669;52.100;5.104;2023-03-01T01:19:19;3.00;;;2.17;;
77542;SDS011;66669;52.100;5.104;2023-03-01T01:21:45;3.10;;;2.22;;
77542;SDS011;66669;52.100;5.104;2023-03-01T01:24:11;3.85;;;2.20;;
77542;SDS011;66669;52.100;5.104;2023-03-01T01:26:37;2.95;;;2.10;;
77542;SDS011;66669;52.100;5.104;2023-03-01T01:29:03;3.08;;;2.35;;
77542;SDS011;66669;52.100;5.104;2023-03-01T01:31:30;2.42;;;2.20;;
77542;SDS011;66669;52.100;5.104;2023-03-01T01:33:59;2.95;;;1.88;;
77542;SDS011;66669;52.100;5.104;2023-03-01T01:36:25;4.40;;;2.45;;
77542;SDS011;66669;52.100;5.104;2023-03-01T01:38:51;2.90;;;2.10;;
77542;SDS011;66669;52.100;5.104;2023-03-01T01:41:18;12.75;;;2.75;;
77542;SDS011;66669;52.100;5.104;2023-03-01T01:43:45;2.80;;;2.10;;
77542;SDS011;66669;52.100;5.104;2023-03-01T01:46:25;5.25;;;2.83;;
77542;SDS011;66669;52.100;5.104;2023-03-01T01:48:59;5.72;;;3.35;;
77542;SDS011;66669;52.100;5.104;2023-03-01T01:51:34;6.68;;;3.40;;
77542;SDS011;66669;52.100;5.104;2023-03-01T01:54:05;4.47;;;3.55;;
77542;SDS011;66669;52.100;5.104;2023-03-01T01:56:40;4.50;;;3.40;;
77542;SDS011;66669;52.100;5.104;2023-03-01T01:59:09;5.50;;;3.55;;
77542;SDS011;66669;52.100;5.104;2023-03-01T02:01:36;5.53;;;3.65;;
77542;SDS011;66669;52.100;5.104;2023-03-01T02:04:01;5.10;;;4.30;;
77542;SDS011;66669;52.100;5.104;2023-03-01T02:06:28;4.78;;;4.22;;
77542;SDS011;66669;52.100;5.104;2023-03-01T02:08:59;5.53;;;4.30;;
77542;SDS011;66669;52.100;5.104;2023-03-01T02:11:27;4.80;;;3.95;;
77542;SDS011;66669;52.100;5.104;2023-03-01T02:13:55;4.75;;;4.13;;
77542;SDS011;66669;52.100;5.104;2023-03-01T02:16:20;5.20;;;3.90;;
77542;SDS011;66669;52.100;5.104;2023-03-01T02:18:46;5.30;;;4.28;;
77542;SDS011;66669;52.100;5.104;2023-03-01T02:23:48;5.07;;;4.50;;
77542;SDS011;66669;52.100;5.104;2023-03-01T02:28:49;5.75;;;4.88;;
77542;SDS011;66669;52.100;5.104;2023-03-01T02:31:17;4.45;;;3.97;;
77542;SDS011;66669;52.100;5.104;2023-03-01T02:34:04;5.15;;;4.65;;
77542;SDS011;66669;52.100;5.104;2023-03-01T02:36:34;5.32;;;4.70;;
77542;SDS011;66669;52.100;5.104;2023-03-01T02:39:03;5.35;;;4.70;;
77542;SDS011;66669;52.100;5.104;2023-03-01T02:41:32;5.60;;;4.30;;
77542;SDS011;66669;52.100;5.104;2023-03-01T02:44:02;6.00;;;4.97;;
77542;SDS011;66669;52.100;5.104;2023-03-01T02:46:28;6.43;;;4.90;;
77542;SDS011;66669;52.100;5.104;2023-03-01T02:48:55;5.93;;;4.78;;
77542;SDS011;66669;52.100;5.104;2023-03-01T02:51:25;5.13;;;4.63;;
77542;SDS011;66669;52.100;5.104;2023-03-01T02:56:47;5.28;;;4.78;;
77542;SDS011;66669;52.100;5.104;2023-03-01T02:59:14;5.78;;;4.70;;
77542;SDS011;66669;52.100;5.104;2023-03-01T03:01:43;6.30;;;5.32;;
77542;SDS011;66669;52.100;5.104;2023-03-01T03:04:09;6.78;;;5.05;;
77542;SDS011;66669;52.100;5.104;2023-03-01T03:06:36;5.32;;;4.82;;
77542;SDS011;66669;52.100;5.104;2023-03-01T03:09:02;5.95;;;4.85;;
77542;SDS011;66669;52.100;5.104;2023-03-01T03:11:28;6.63;;;5.47;;
77542;SDS011;66669;52.100;5.104;2023-03-01T03:13:54;6.47;;;4.95;;
77542;SDS011;66669;52.100;5.104;2023-03-01T03:16:21;7.63;;;5.13;;
77542;SDS011;66669;52.100;5.104;2023-03-01T03:18:47;6.07;;;5.20;;
77542;SDS011;66669;52.100;5.104;2023-03-01T03:21:13;7.22;;;5.00;;
77542;SDS011;66669;52.100;5.104;2023-03-01T03:23:38;6.78;;;5.53;;
77542;SDS011;66669;52.100;5.104;2023-03-01T03:26:04;5.50;;;5.00;;
77542;SDS011;66669;52.100;5.104;2023-03-01T03:28:30;5.72;;;5.18;;
77542;SDS011;66669;52.100;5.104;2023-03-01T03:30:57;6.68;;;5.57;;
77542;SDS011;66669;52.100;5.104;2023-03-01T03:33:23;5.82;;;5.07;;
77542;SDS011;66669;52.100;5.104;2023-03-01T03:35:49;6.00;;;5.15;;
77542;SDS011;66669;52.100;5.104;2023-03-01T03:38:16;6.82;;;5.13;;
77542;SDS011;66669;52.100;5.104;2023-03-01T03:40:47;6.32;;;5.53;;
77542;SDS011;66669;52.100;5.104;2023-03-01T03:43:18;5.55;;;5.05;;
77542;SDS011;66669;52.100;5.104;2023-03-01T03:45:45;5.38;;;4.88;;
77542;SDS011;66669;52.100;5.104;2023-03-01T03:48:11;5.60;;;4.75;;
77542;SDS011;66669;52.100;5.104;2023-03-01T03:50:37;6.68;;;5.40;;
77542;SDS011;66669;52.100;5.104;2023-03-01T03:53:05;6.97;;;5.10;;
77542;SDS011;66669;52.100;5.104;2023-03-01T03:55:35;5.28;;;4.78;;
77542;SDS011;66669;52.100;5.104;2023-03-01T03:58:04;6.20;;;4.97;;
77542;SDS011;66669;52.100;5.104;2023-03-01T04:00:35;5.65;;;4.55;;
77542;SDS011;66669;52.100;5.104;2023-03-01T04:03:08;5.78;;;4.97;;
77542;SDS011;66669;52.100;5.104;2023-03-01T04:05:35;5.75;;;5.15;;
77542;SDS011;66669;52.100;5.104;2023-03-01T04:08:01;5.07;;;4.57;;
77542;SDS011;66669;52.100;5.104;2023-03-01T04:10:33;6.20;;;5.07;;
77542;SDS011;66669;52.100;5.104;2023-03-01T04:13:07;5.80;;;5.15;;
77542;SDS011;66669;52.100;5.104;2023-03-01T04:15:35;5.47;;;4.82;;
77542;SDS011;66669;52.100;5.104;2023-03-01T04:18:01;6.38;;;4.95;;
77542;SDS011;66669;52.100;5.104;2023-03-01T04:20:28;5.93;;;4.70;;
77542;SDS011;66669;52.100;5.104;2023-03-01T04:22:57;5.20;;;4.70;;
77542;SDS011;66669;52.100;5.104;2023-03-01T04:25:25;5.57;;;5.03;;
77542;SDS011;66669;52.100;5.104;2023-03-01T04:27:50;5.68;;;5.07;;
77542;SDS011;66669;52.100;5.104;2023-03-01T04:30:16;5.63;;;4.75;;
77542;SDS011;66669;52.100;5.104;2023-03-01T04:32:41;6.80;;;4.60;;
77542;SDS011;66669;52.100;5.104;2023-03-01T04:35:07;6.65;;;5.13;;
77542;SDS011;66669;52.100;5.104;2023-03-01T04:37:33;5.55;;;5.03;;
77542;SDS011;66669;52.100;5.104;2023-03-01T04:40:00;6.25;;;4.90;;
77542;SDS011;66669;52.100;5.104;2023-03-01T04:42:25;5.65;;;5.15;;
77542;SDS011;66669;52.100;5.104;2023-03-01T04:44:51;5.20;;;4.70;;
77542;SDS011;66669;52.100;5.104;2023-03-01T04:47:17;5.50;;;4.80;;
77542;SDS011;66669;52.100;5.104;2023-03-01T04:49:42;6.30;;;5.10;;
77542;SDS011;66669;52.100;5.104;2023-03-01T04:52:07;5.50;;;4.60;;
77542;SDS011;66669;52.100;5.104;2023-03-01T04:54:34;6.88;;;5.50;;
77542;SDS011;66669;52.100;5.104;2023-03-01T04:57:00;5.72;;;5.13;;
77542;SDS011;66669;52.100;5.104;2023-03-01T04:59:27;6.07;;;5.00;;
77542;SDS011;66669;52.100;5.104;2023-03-01T05:01:53;5.18;;;4.65;;
77542;SDS011;66669;52.100;5.104;2023-03-01T05:04:21;6.68;;;4.90;;
77542;SDS011;66669;52.100;5.104;2023-03-01T05:06:47;6.40;;;5.10;;
77542;SDS011;66669;52.100;5.104;2023-03-01T05:09:13;5.75;;;4.68;;
77542;SDS011;66669;52.100;5.104;2023-03-01T05:11:38;6.45;;;5.75;;
77542;SDS011;66669;52.100;5.104;2023-03-01T05:14:07;5.07;;;4.57;;
77542;SDS011;66669;52.100;5.104;2023-03-01T05:16:34;7.00;;;5.85;;
77542;SDS011;66669;52.100;5.104;2023-03-01T05:19:01;5.40;;;4.85;;
77542;SDS011;66669;52.100;5.104;2023-03-01T05:21:36;6.60;;;5.43;;
77542;SDS011;66669;52.100;5.104;2023-03-01T05:24:24;5.78;;;5.10;;
77542;SDS011;66669;52.100;5.104;2023-03-01T05:26:49;6.40;;;5.28;;
77542;SDS011;66669;52.100;5.104;2023-03-01T05:29:17;6.60;;;4.85;;
77542;SDS011;66669;52.100;5.104;2023-03-01T05:31:44;6.45;;;5.25;;
77542;SDS011;66669;52.100;5.104;2023-03-01T05:34:09;5.43;;;4.93;;
77542;SDS011;66669;52.100;5.104;2023-03-01T05:36:37;7.13;;;5.18;;
77542;SDS011;66669;52.100;5.104;2023-03-01T05:39:03;6.88;;;5.40;;
77542;SDS011;66669;52.100;5.104;2023-03-01T05:41:28;7.47;;;5.82;;
77542;SDS011;66669;52.100;5.104;2023-03-01T05:43:54;6.60;;;5.88;;
77542;SDS011;66669;52.100;5.104;2023-03-01T05:46:19;6.82;;;6.13;;
77542;SDS011;66669;52.100;5.104;2023-03-01T05:48:45;5.90;;;5.20;;
77542;SDS011;66669;52.100;5.104;2023-03-01T05:51:10;6.00;;;5.40;;
77542;SDS011;66669;52.100;5.104;2023-03-01T05:53:36;7.03;;;5.85;;
77542;SDS011;66669;52.100;5.104;2023-03-01T05:56:03;7.03;;;5.80;;
77542;SDS011;66669;52.100;5.104;2023-03-01T05:58:29;6.80;;;6.05;;
77542;SDS011;66669;52.100;5.104;2023-03-01T06:00:54;5.95;;;5.35;;
77542;SDS011;66669;52.100;5.104;2023-03-01T06:03:20;7.18;;;6.03;;
77542;SDS011;66669;52.100;5.104;2023-03-01T06:05:45;6.63;;;5.70;;
77542;SDS011;66669;52.100;5.104;2023-03-01T06:08:11;7.45;;;5.78;;
77542;SDS011;66669;52.100;5.104;2023-03-01T06:10:37;7.00;;;6.03;;
77542;SDS011;66669;52.100;5.104;2023-03-01T06:13:02;6.18;;;5.57;;
77542;SDS011;66669;52.100;5.104;2023-03-01T06:15:28;6.85;;;6.00;;
77542;SDS011;66669;52.100;5.104;2023-03-01T06:17:54;7.10;;;5.25;;
77542;SDS011;66669;52.100;5.104;2023-03-01T06:20:22;6.88;;;5.60;;
77542;SDS011;66669;52.100;5.104;2023-03-01T06:22:49;6.88;;;5.90;;
77542;SDS011;66669;52.100;5.104;2023-03-01T06:25:16;7.32;;;6.20;;
77542;SDS011;66669;52.100;5.104;2023-03-01T06:27:44;7.75;;;6.47;;
77542;SDS011;66669;52.100;5.104;2023-03-01T06:30:11;6.85;;;5.72;;
77542;SDS011;66669;52.100;5.104;2023-03-01T06:32:39;6.53;;;5.55;;
77542;SDS011;66669;52.100;5.104;2023-03-01T06:35:07;7.47;;;6.03;;
77542;SDS011;66669;52.100;5.104;2023-03-01T06:37:33;7.65;;;6.00;;
77542;SDS011;66669;52.100;5.104;2023-03-01T06:40:00;6.63;;;5.93;;
77542;SDS011;66669;52.100;5.104;2023-03-01T06:42:29;6.00;;;5.40;;
77542;SDS011;66669;52.100;5.104;2023-03-01T06:44:54;8.90;;;6.30;;
77542;SDS011;66669;52.100;5.104;2023-03-01T06:47:20;8.20;;;6.20;;
77542;SDS011;66669;52.100;5.104;2023-03-01T06:49:45;7.00;;;5.72;;
77542;SDS011;66669;52.100;5.104;2023-03-01T06:52:11;7.13;;;5.97;;
77542;SDS011;66669;52.100;5.104;2023-03-01T06:54:36;7.10;;;6.28;;
77542;SDS011;66669;52.100;5.104;2023-03-01T06:57:01;7.35;;;6.60;;
77542;SDS011;66669;52.100;5.104;2023-03-01T06:59:27;8.55;;;7.00;;
77542;SDS011;66669;52.100;5.104;2023-03-01T07:01:52;7.97;;;7.03;;
77542;SDS011;66669;52.100;5.104;2023-03-01T07:04:18;7.30;;;6.18;;
77542;SDS011;66669;52.100;5.104;2023-03-01T07:06:43;9.25;;;6.50;;
77542;SDS011;66669;52.100;5.104;2023-03-01T07:09:08;8.27;;;6.47;;
77542;SDS011;66669;52.100;5.104;2023-03-01T07:11:34;8.15;;;6.70;;
77542;SDS011;66669;52.100;5.104;2023-03-01T07:14:00;8.18;;;6.40;;
77542;SDS011;66669;52.100;5.104;2023-03-01T07:16:25;7.75;;;6.80;;
77542;SDS011;66669;52.100;5.104;2023-03-01T07:18:50;8.15;;;6.75;;
77542;SDS011;66669;52.100;5.104;2023-03-01T07:21:16;8.30;;;6.40;;
77542;SDS011;66669;52.100;5.104;2023-03-01T07:23:41;7.68;;;6.10;;
77542;SDS011;66669;52.100;5.104;2023-03-01T07:26:07;9.02;;;6.78;;
77542;SDS011;66669;52.100;5.104;2023-03-01T07:28:32;8.23;;;6.95;;
77542;SDS011;66669;52.100;5.104;2023-03-01T07:31:03;10.32;;;6.53;;
77542;SDS011;66669;52.100;5.104;2023-03-01T07:33:29;8.63;;;6.40;;
77542;SDS011;66669;52.100;5.104;2023-03-01T07:35:55;8.05;;;6.95;;
77542;SDS011;66669;52.100;5.104;2023-03-01T07:38:22;9.13;;;6.45;;
77542;SDS011;66669;52.100;5.104;2023-03-01T07:40:48;7.63;;;6.10;;
77542;SDS011;66669;52.100;5.104;2023-03-01T07:43:13;7.28;;;5.90;;
77542;SDS011;66669;52.100;5.104;2023-03-01T07:45:41;8.05;;;6.22;;
77542;SDS011;66669;52.100;5.104;2023-03-01T07:48:06;8.05;;;6.82;;
77542;SDS011;66669;52.100;5.104;2023-03-01T07:50:32;7.53;;;6.70;;
77542;SDS011;66669;52.100;5.104;2023-03-01T07:52:57;7.30;;;5.60;;
77542;SDS011;66669;52.100;5.104;2023-03-01T07:55:22;6.93;;;6.03;;
77542;SDS011;66669;52.100;5.104;2023-03-01T07:57:48;7.47;;;6.22;;
77542;SDS011;66669;52.100;5.104;2023-03-01T08:00:13;7.03;;;6.05;;
77542;SDS011;66669;52.100;5.104;2023-03-01T08:02:39;6.50;;;5.47;;
77542;SDS011;66669;52.100;5.104;2023-03-01T08:05:06;8.23;;;5.25;;
77542;SDS011;66669;52.100;5.104;2023-03-01T08:07:33;6.03;;;4.78;;
77542;SDS011;66669;52.100;5.104;2023-03-01T08:09:58;6.47;;;5.70;;
77542;SDS011;66669;52.100;5.104;2023-03-01T08:12:23;6.50;;;5.20;;
77542;SDS011;66669;52.100;5.104;2023-03-01T08:14:49;7.07;;;5.20;;
77542;SDS011;66669;52.100;5.104;2023-03-01T08:17:14;5.97;;;5.03;;
77542;SDS011;66669;52.100;5.104;2023-03-01T08:19:39;5.90;;;4.90;;
77542;SDS011;66669;52.100;5.104;2023-03-01T08:22:05;6.47;;;5.20;;
77542;SDS011;66669;52.100;5.104;2023-03-01T08:24:30;5.40;;;4.80;;
77542;SDS011;66669;52.100;5.104;2023-03-01T08:26:56;5.30;;;4.70;;
77542;SDS011;66669;52.100;5.104;2023-03-01T08:29:21;5.45;;;4.70;;
77542;SDS011;66669;52.100;5.104;2023-03-01T08:31:47;6.38;;;5.15;;
77542;SDS011;66669;52.100;5.104;2023-03-01T08:34:14;6.75;;;4.70;;
77542;SDS011;66669;52.100;5.104;2023-03-01T08:36:41;5.63;;;4.60;;
77542;SDS011;66669;52.100;5.104;2023-03-01T08:39:09;5.85;;;4.70;;
77542;SDS011;66669;52.100;5.104;2023-03-01T08:41:36;5.32;;;4.70;;
77542;SDS011;66669;52.100;5.104;2023-03-01T08:44:02;6.70;;;5.40;;
77542;SDS011;66669;52.100;5.104;2023-03-01T08:46:29;6.18;;;4.97;;
77542;SDS011;66669;52.100;5.104;2023-03-01T08:48:56;4.97;;;4.45;;
77542;SDS011;66669;52.100;5.104;2023-03-01T08:51:22;8.02;;;4.10;;
77542;SDS011;66669;52.100;5.104;2023-03-01T08:53:48;5.57;;;3.58;;
77542;SDS011;66669;52.100;5.104;2023-03-01T08:56:14;5.57;;;3.20;;
77542;SDS011;66669;52.100;5.104;2023-03-01T08:58:43;4.32;;;3.03;;
77542;SDS011;66669;52.100;5.104;2023-03-01T09:01:13;8.18;;;3.20;;
77542;SDS011;66669;52.100;5.104;2023-03-01T09:03:40;13.25;;;3.47;;
77542;SDS011;66669;52.100;5.104;2023-03-01T09:06:06;7.07;;;3.08;;
77542;SDS011;66669;52.100;5.104;2023-03-01T09:08:38;6.10;;;3.10;;
77542;SDS011;66669;52.100;5.104;2023-03-01T09:11:07;4.82;;;3.20;;
77542;SDS011;66669;52.100;5.104;2023-03-01T09:13:34;5.25;;;2.92;;
77542;SDS011;66669;52.100;5.104;2023-03-01T09:16:00;3.53;;;2.70;;
77542;SDS011;66669;52.100;5.104;2023-03-01T09:18:27;3.25;;;2.50;;
77542;SDS011;66669;52.100;5.104;2023-03-01T09:20:53;3.97;;;2.10;;
77542;SDS011;66669;52.100;5.104;2023-03-01T09:23:21;3.13;;;2.30;;
77542;SDS011;66669;52.100;5.104;2023-03-01T09:25:47;3.38;;;2.50;;
77542;SDS011;66669;52.100;5.104;2023-03-01T09:28:12;3.58;;;2.55;;
77542;SDS011;66669;52.100;5.104;2023-03-01T09:30:37;6.13;;;2.40;;
77542;SDS011;66669;52.100;5.104;2023-03-01T09:33:03;8.15;;;2.60;;
77542;SDS011;66669;52.100;5.104;2023-03-01T09:35:28;4.45;;;2.47;;
77542;SDS011;66669;52.100;5.104;2023-03-01T09:37:54;3.35;;;2.13;;
77542;SDS011;66669;52.100;5.104;2023-03-01T09:40:20;3.85;;;2.25;;
77542;SDS011;66669;52.100;5.104;2023-03-01T09:43:02;4.88;;;2.13;;
77542;SDS011;66669;52.100;5.104;2023-03-01T09:45:36;4.75;;;2.60;;
77542;SDS011;66669;52.100;5.104;2023-03-01T09:48:07;2.95;;;1.90;;
77542;SDS011;66669;52.100;5.104;2023-03-01T09:50:41;4.80;;;2.88;;
77542;SDS011;66669;52.100;5.104;2023-03-01T09:53:19;2.95;;;2.47;;
77542;SDS011;66669;52.100;5.104;2023-03-01T09:56:05;3.95;;;2.08;;
77542;SDS011;66669;52.100;5.104;2023-03-01T09:59:03;2.97;;;2.10;;
77542;SDS011;66669;52.100;5.104;2023-03-01T10:01:40;4.07;;;2.97;;
77542;SDS011;66669;52.100;5.104;2023-03-01T10:09:33;3.50;;;1.80;;
77542;SDS011;66669;52.100;5.104;2023-03-01T10:12:00;2.22;;;1.70;;
77542;SDS011;66669;52.100;5.104;2023-03-01T10:14:30;4.80;;;2.10;;
77542;SDS011;66669;52.100;5.104;2023-03-01T10:17:04;5.95;;;2.10;;
77542;SDS011;66669;52.100;5.104;2023-03-01T10:19:41;3.90;;;2.35;;
77542;SDS011;66669;52.100;5.104;2023-03-01T10:22:16;2.95;;;1.80;;
77542;SDS011;66669;52.100;5.104;2023-03-01T10:24:46;2.47;;;1.70;;
77542;SDS011;66669;52.100;5.104;2023-03-01T10:27:16;3.05;;;2.08;;
77542;SDS011;66669;52.100;5.104;2023-03-01T10:30:50;3.97;;;1.90;;
77542;SDS011;66669;52.100;5.104;2023-03-01T10:32:54;2.60;;;1.70;;
77542;SDS011;66669;52.100;5.104;2023-03-01T10:35:23;4.13;;;1.98;;
77542;SDS011;66669;52.100;5.104;2023-03-01T10:37:57;2.85;;;1.92;;
77542;SDS011;66669;52.100;5.104;2023-03-01T10:40:22;2.33;;;1.60;;
77542;SDS011;66669;52.100;5.104;2023-03-01T10:42:48;1.70;;;1.50;;
77542;SDS011;66669;52.100;5.104;2023-03-01T10:48:16;1.88;;;1.60;;
77542;SDS011;66669;52.100;5.104;2023-03-01T10:53:55;3.15;;;2.08;;
77542;SDS011;66669;52.100;5.104;2023-03-01T10:56:09;2.42;;;1.98;;
77542;SDS011;66669;52.100;5.104;2023-03-01T10:58:38;2.50;;;1.83;;
77542;SDS011;66669;52.100;5.104;2023-03-01T11:06:30;3.17;;;2.15;;
77542;SDS011;66669;52.100;5.104;2023-03-01T11:08:55;3.92;;;2.00;;
77542;SDS011;66669;52.100;5.104;2023-03-01T11:13:50;4.38;;;2.22;;
77542;SDS011;66669;52.100;5.104;2023-03-01T11:16:25;3.75;;;1.90;;
77542;SDS011;66669;52.100;5.104;2023-03-01T11:21:32;8.10;;;2.30;;
77542;SDS011;66669;52.100;5.104;2023-03-01T11:24:00;4.47;;;1.83;;
77542;SDS011;66669;52.100;5.104;2023-03-01T11:26:27;3.47;;;1.45;;
77542;SDS011;66669;52.100;5.104;2023-03-01T11:28:56;4.70;;;1.60;;
77542;SDS011;66669;52.100;5.104;2023-03-01T11:31:27;3.55;;;2.45;;
77542;SDS011;66669;52.100;5.104;2023-03-01T11:33:59;3.45;;;1.60;;
77542;SDS011;66669;52.100;5.104;2023-03-01T11:36:35;3.40;;;1.63;;
77542;SDS011;66669;52.100;5.104;2023-03-01T11:39:42;3.22;;;2.17;;
77542;SDS011;66669;52.100;5.104;2023-03-01T11:42:15;2.75;;;1.90;;
77542;SDS011;66669;52.100;5.104;2023-03-01T11:44:46;3.13;;;1.98;;
77542;SDS011;66669;52.100;5.104;2023-03-01T11:47:39;3.83;;;1.80;;
77542;SDS011;66669;52.100;5.104;2023-03-01T11:50:49;3.38;;;2.17;;
77542;SDS011;66669;52.100;5.104;2023-03-01T11:56:28;3.20;;;1.90;;
77542;SDS011;66669;52.100;5.104;2023-03-01T11:59:06;2.42;;;1.60;;
77542;SDS011;66669;52.100;5.104;2023-03-01T12:01:41;2.43;;;1.80;;
77542;SDS011;66669;52.100;5.104;2023-03-01T12:10:07;2.25;;;1.20;;
77542;SDS011;66669;52.100;5.104;2023-03-01T12:15:32;3.58;;;2.50;;
77542;SDS011;66669;52.100;5.104;2023-03-01T12:26:34;3.13;;;1.60;;
77542;SDS011;66669;52.100;5.104;2023-03-01T12:29:09;3.25;;;1.92;;
77542;SDS011;66669;52.100;5.104;2023-03-01T12:37:26;2.83;;;1.30;;
77542;SDS011;66669;52.100;5.104;2023-03-01T12:48:17;2.72;;;1.20;;
77542;SDS011;66669;52.100;5.104;2023-03-01T12:51:06;2.80;;;1.90;;
77542;SDS011;66669;52.100;5.104;2023-03-01T12:53:40;1.30;;;1.10;;
77542;SDS011;66669;52.100;5.104;2023-03-01T12:56:09;2.70;;;1.70;;
77542;SDS011;66669;52.100;5.104;2023-03-01T12:58:41;3.15;;;1.15;;
77542;SDS011;66669;52.100;5.104;2023-03-01T13:03:58;2.55;;;1.10;;
77542;SDS011;66669;52.100;5.104;2023-03-01T13:17:55;4.05;;;3.20;;
77542;SDS011;66669;52.100;5.104;2023-03-01T13:26:19;3.97;;;3.22;;
77542;SDS011;66669;52.100;5.104;2023-03-01T13:39:03;3.10;;;2.53;;
77542;SDS011;66669;52.100;5.104;2023-03-01T13:49:29;3.40;;;2.47;;
77542;SDS011;66669;52.100;5.104;2023-03-01T13:52:43;2.55;;;2.03;;
77542;SDS011;66669;52.100;5.104;2023-03-01T13:57:40;2.70;;;1.80;;
77542;SDS011;66669;52.100;5.104;2023-03-01T14:00:25;2.83;;;1.92;;
77542;SDS011;66669;52.100;5.104;2023-03-01T14:03:02;2.72;;;2.33;;
77542;SDS011;66669;52.100;5.104;2023-03-01T14:05:29;2.63;;;1.92;;
77542;SDS011;66669;52.100;5.104;2023-03-01T14:07:55;4.18;;;2.30;;
77542;SDS011;66669;52.100;5.104;2023-03-01T14:10:20;2.45;;;1.63;;
77542;SDS011;66669;52.100;5.104;2023-03-01T14:12:54;2.03;;;1.38;;
77542;SDS011;66669;52.100;5.104;2023-03-01T14:15:50;2.10;;;1.60;;
77542;SDS011;66669;52.100;5.104;2023-03-01T14:24:38;2.65;;;1.70;;
77542;SDS011;66669;52.100;5.104;2023-03-01T14:27:13;2.10;;;1.42;;
77542;SDS011;66669;52.100;5.104;2023-03-01T14:29:39;2.53;;;1.80;;
77542;SDS011;66669;52.100;5.104;2023-03-01T14:32:15;4.88;;;2.30;;
77542;SDS011;66669;52.100;5.104;2023-03-01T14:34:45;3.58;;;1.50;;
77542;SDS011;66669;52.100;5.104;2023-03-01T14:37:20;2.00;;;1.45;;
77542;SDS011;66669;52.100;5.104;2023-03-01T14:39:53;2.78;;;1.50;;
77542;SDS011;66669;52.100;5.104;2023-03-01T14:42:21;2.10;;;1.30;;
77542;SDS011;66669;52.100;5.104;2023-03-01T14:44:50;2.17;;;1.40;;
77542;SDS011;66669;52.100;5.104;2023-03-01T14:47:26;3.33;;;1.70;;
77542;SDS011;66669;52.100;5.104;2023-03-01T14:49:56;3.35;;;1.65;;
77542;SDS011;66669;52.100;5.104;2023-03-01T14:52:25;2.13;;;1.25;;
77542;SDS011;66669;52.100;5.104;2023-03-01T14:54:59;1.45;;;1.10;;
77542;SDS011;66669;52.100;5.104;2023-03-01T14:57:27;1.60;;;0.80;;
77542;SDS011;66669;52.100;5.104;2023-03-01T14:59:53;1.42;;;0.70;;
77542;SDS011;66669;52.100;5.104;2023-03-01T15:02:23;1.85;;;1.00;;
77542;SDS011;66669;52.100;5.104;2023-03-01T15:04:57;1.85;;;1.00;;
77542;SDS011;66669;52.100;5.104;2023-03-01T15:09:59;2.10;;;1.02;;
77542;SDS011;66669;52.100;5.104;2023-03-01T15:14:54;2.28;;;1.00;;
77542;SDS011;66669;52.100;5.104;2023-03-01T15:19:57;2.00;;;1.55;;
77542;SDS011;66669;52.100;5.104;2023-03-01T15:22:22;3.50;;;1.10;;
77542;SDS011;66669;52.100;5.104;2023-03-01T15:24:51;2.33;;;1.70;;
77542;SDS011;66669;52.100;5.104;2023-03-01T15:27:18;3.80;;;1.75;;
77542;SDS011;66669;52.100;5.104;2023-03-01T15:29:53;1.83;;;1.48;;
77542;SDS011;66669;52.100;5.104;2023-03-01T15:40:18;1.50;;;1.00;;
77542;SDS011;66669;52.100;5.104;2023-03-01T15:42:49;2.22;;;1.13;;
77542;SDS011;66669;52.100;5.104;2023-03-01T15:47:46;1.38;;;0.70;;
77542;SDS011;66669;52.100;5.104;2023-03-01T15:50:56;1.15;;;0.70;;
77542;SDS011;66669;52.100;5.104;2023-03-01T15:53:06;1.80;;;0.90;;
77542;SDS011;66669;52.100;5.104;2023-03-01T15:55:36;2.05;;;1.10;;
77542;SDS011;66669;52.100;5.104;2023-03-01T15:58:08;2.42;;;0.95;;
77542;SDS011;66669;52.100;5.104;2023-03-01T16:00:37;1.80;;;0.85;;
77542;SDS011;66669;52.100;5.104;2023-03-01T16:03:04;1.25;;;0.63;;
77542;SDS011;66669;52.100;5.104;2023-03-01T16:05:31;1.80;;;1.20;;
77542;SDS011;66669;52.100;5.104;2023-03-01T16:07:59;2.17;;;1.17;;
77542;SDS011;66669;52.100;5.104;2023-03-01T16:10:25;1.55;;;0.90;;
77542;SDS011;66669;52.100;5.104;2023-03-01T16:12:51;1.77;;;1.00;;
77542;SDS011;66669;52.100;5.104;2023-03-01T16:17:49;1.95;;;1.42;;
77542;SDS011;66669;52.100;5.104;2023-03-01T16:20:15;2.30;;;0.98;;
77542;SDS011;66669;52.100;5.104;2023-03-01T16:22:41;1.48;;;0.88;;
77542;SDS011;66669;52.100;5.104;2023-03-01T16:25:08;2.80;;;0.90;;
77542;SDS011;66669;52.100;5.104;2023-03-01T16:27:38;1.85;;;0.75;;
77542;SDS011;66669;52.100;5.104;2023-03-01T16:30:08;2.50;;;0.85;;
77542;SDS011;66669;52.100;5.104;2023-03-01T16:32:37;1.50;;;0.85;;
77542;SDS011;66669;52.100;5.104;2023-03-01T16:35:04;1.30;;;0.73;;
77542;SDS011;66669;52.100;5.104;2023-03-01T16:37:32;2.85;;;0.90;;
77542;SDS011;66669;52.100;5.104;2023-03-01T16:39:58;1.92;;;1.05;;
77542;SDS011;66669;52.100;5.104;2023-03-01T16:42:24;1.38;;;0.70;;
77542;SDS011;66669;52.100;5.104;2023-03-01T16:44:56;1.52;;;1.00;;
77542;SDS011;66669;52.100;5.104;2023-03-01T16:47:21;1.90;;;1.10;;
77542;SDS011;66669;52.100;5.104;2023-03-01T16:49:47;1.20;;;0.77;;
77542;SDS011;66669;52.100;5.104;2023-03-01T16:52:16;2.53;;;1.23;;
77542;SDS011;66669;52.100;5.104;2023-03-01T16:54:41;2.05;;;1.50;;
77542;SDS011;66669;52.100;5.104;2023-03-01T16:57:06;2.33;;;1.45;;
77542;SDS011;66669;52.100;5.104;2023-03-01T16:59:32;2.90;;;1.70;;
77542;SDS011;66669;52.100;5.104;2023-03-01T17:01:57;2.97;;;1.50;;
77542;SDS011;66669;52.100;5.104;2023-03-01T17:04:22;2.13;;;1.27;;
77542;SDS011;66669;52.100;5.104;2023-03-01T17:06:48;2.97;;;2.00;;
77542;SDS011;66669;52.100;5.104;2023-03-01T17:09:14;3.28;;;1.50;;